createdAt,value
2022-11-06T00:01:44.929Z,6.27
2022-11-06T00:04:11.830Z,6.23
2022-11-06T00:06:50.720Z,6.27
2022-11-06T00:09:19.223Z,6.19
2022-11-06T00:11:45.839Z,6.19
2022-11-06T00:14:12.167Z,6.25
2022-11-06T00:16:38.965Z,6.24
2022-11-06T00:19:05.505Z,6.29
2022-11-06T00:21:31.904Z,6.23
2022-11-06T00:23:58.780Z,6.21
2022-11-06T00:26:25.828Z,6.20
2022-11-06T00:28:52.493Z,6.31
2022-11-06T00:31:19.877Z,6.24
2022-11-06T00:33:46.198Z,6.18
2022-11-06T00:36:15.402Z,6.23
2022-11-06T00:38:41.727Z,6.23
2022-11-06T00:41:08.781Z,6.10
2022-11-06T00:43:38.712Z,6.04
2022-11-06T00:46:06.914Z,6.02
2022-11-06T00:48:33.679Z,6.00
2022-11-06T00:51:03.646Z,5.92
2022-11-06T00:53:31.015Z,5.85
2022-11-06T00:56:09.815Z,5.83
2022-11-06T00:58:36.536Z,5.76
2022-11-06T01:01:09.638Z,5.82
2022-11-06T01:03:36.460Z,5.76
2022-11-06T01:06:06.611Z,5.74
2022-11-06T01:08:33.121Z,5.72
2022-11-06T01:10:59.428Z,5.69
2022-11-06T01:13:25.767Z,5.68
2022-11-06T01:15:53.130Z,5.74
2022-11-06T01:18:19.472Z,5.76
2022-11-06T01:20:48.686Z,5.74
2022-11-06T01:23:15.006Z,5.73
2022-11-06T01:25:41.319Z,5.79
2022-11-06T01:28:07.637Z,5.84
2022-11-06T01:30:37.523Z,5.88
2022-11-06T01:33:03.850Z,5.88
2022-11-06T01:35:30.160Z,5.84
2022-11-06T01:37:56.756Z,5.89
2022-11-06T01:40:23.076Z,5.87
2022-11-06T01:42:49.726Z,5.89
2022-11-06T01:45:21.084Z,5.84
2022-11-06T01:47:47.449Z,5.86
2022-11-06T01:50:17.143Z,5.84
2022-11-06T01:52:44.515Z,5.77
2022-11-06T01:55:22.014Z,5.79
2022-11-06T01:57:48.639Z,5.79
2022-11-06T02:00:16.109Z,5.77
2022-11-06T02:02:42.530Z,5.66
2022-11-06T02:05:09.583Z,5.64
2022-11-06T02:07:35.893Z,5.61
2022-11-06T02:10:04.619Z,5.63
2022-11-06T02:12:49.722Z,5.63
2022-11-06T02:15:15.993Z,5.60
2022-11-06T02:17:51.232Z,5.56
2022-11-06T02:20:27.797Z,5.60
2022-11-06T02:23:01.502Z,5.62
2022-11-06T02:25:33.065Z,5.61
2022-11-06T02:28:03.240Z,5.50
2022-11-06T02:30:33.127Z,5.55
2022-11-06T02:32:59.783Z,5.52
2022-11-06T02:35:26.615Z,5.61
2022-11-06T02:37:55.429Z,5.65
2022-11-06T02:40:22.072Z,5.69
2022-11-06T02:42:49.077Z,5.76
2022-11-06T02:45:16.933Z,5.74
2022-11-06T02:47:43.286Z,5.80
2022-11-06T02:50:11.368Z,5.73
2022-11-06T02:52:42.041Z,5.83
2022-11-06T02:55:09.534Z,5.76
2022-11-06T02:57:36.361Z,5.84
2022-11-06T03:00:05.260Z,5.75
2022-11-06T03:02:34.087Z,5.77
2022-11-06T03:05:02.621Z,5.76
2022-11-06T03:07:31.441Z,5.75
2022-11-06T03:09:57.780Z,5.81
2022-11-06T03:12:26.183Z,5.70
2022-11-06T03:15:11.475Z,5.69
2022-11-06T03:17:42.558Z,5.68
2022-11-06T03:20:21.124Z,5.74
2022-11-06T03:22:53.544Z,5.78
2022-11-06T03:25:19.846Z,5.83
2022-11-06T03:28:04.841Z,5.87
2022-11-06T03:30:32.053Z,5.93
2022-11-06T03:33:03.406Z,5.90
2022-11-06T03:35:29.689Z,5.90
2022-11-06T03:37:58.864Z,5.93
2022-11-06T03:40:27.717Z,5.90
2022-11-06T03:42:55.157Z,5.86
2022-11-06T03:45:21.906Z,5.85
2022-11-06T03:47:49.218Z,5.84
2022-11-06T03:50:17.296Z,5.87
2022-11-06T03:52:44.730Z,5.94
2022-11-06T03:55:15.448Z,5.90
2022-11-06T03:57:57.459Z,5.90
2022-11-06T04:00:23.777Z,5.93
2022-11-06T04:02:53.610Z,5.86
2022-11-06T04:05:21.520Z,5.85
2022-11-06T04:08:07.326Z,5.84
2022-11-06T04:10:52.333Z,5.82
2022-11-06T04:13:37.459Z,5.75
2022-11-06T04:16:04.241Z,5.72
2022-11-06T04:18:30.655Z,5.71
2022-11-06T04:21:23.015Z,5.72
2022-11-06T04:24:27.131Z,5.71
2022-11-06T04:27:08.942Z,5.71
2022-11-06T04:29:44.213Z,5.70
2022-11-06T04:32:10.525Z,5.65
2022-11-06T04:34:41.872Z,5.61
2022-11-06T04:37:08.177Z,5.57
2022-11-06T04:39:37.011Z,5.59
2022-11-06T04:42:09.862Z,5.60
2022-11-06T04:44:40.104Z,5.55
2022-11-06T04:47:08.929Z,5.52
2022-11-06T04:49:35.494Z,5.47
2022-11-06T04:52:02.321Z,5.43
2022-11-06T04:54:30.325Z,5.44
2022-11-06T04:57:02.716Z,5.43
2022-11-06T04:59:29.067Z,5.41
2022-11-06T05:01:55.477Z,5.43
2022-11-06T05:04:22.313Z,5.41
2022-11-06T05:06:48.629Z,5.39
2022-11-06T05:09:14.957Z,5.45
2022-11-06T05:11:42.352Z,5.43
2022-11-06T05:14:08.757Z,5.44
2022-11-06T05:16:35.080Z,5.46
2022-11-06T05:19:01.742Z,5.48
2022-11-06T05:21:46.819Z,5.60
2022-11-06T05:24:13.161Z,5.62
2022-11-06T05:26:41.062Z,5.61
2022-11-06T05:29:07.513Z,5.64
2022-11-06T05:31:34.233Z,5.65
2022-11-06T05:34:00.569Z,5.67
2022-11-06T05:36:27.255Z,5.67
2022-11-06T05:38:54.059Z,5.64
2022-11-06T05:41:20.400Z,5.64
2022-11-06T05:43:46.743Z,5.59
2022-11-06T05:46:46.530Z,5.56
2022-11-06T05:49:02.154Z,5.55
2022-11-06T05:51:28.561Z,5.57
2022-11-06T05:53:55.233Z,5.57
2022-11-06T05:56:23.362Z,5.62
2022-11-06T05:58:52.777Z,5.56
2022-11-06T06:01:19.210Z,5.64
2022-11-06T06:03:45.746Z,5.57
2022-11-06T06:06:12.321Z,5.62
2022-11-06T06:08:39.943Z,5.65
2022-11-06T06:11:07.290Z,5.64
2022-11-06T06:13:35.150Z,5.63
2022-11-06T06:16:01.685Z,5.68
2022-11-06T06:18:28.030Z,5.68
2022-11-06T06:20:54.354Z,5.66
2022-11-06T06:23:20.984Z,5.69
2022-11-06T06:25:47.302Z,5.65
2022-11-06T06:28:14.386Z,5.69
2022-11-06T06:30:40.924Z,5.64
2022-11-06T06:33:07.385Z,5.64
2022-11-06T06:35:33.716Z,5.63
2022-11-06T06:38:00.079Z,5.68
2022-11-06T06:40:27.926Z,5.61
2022-11-06T06:42:57.636Z,5.64
2022-11-06T06:45:24.375Z,5.69
2022-11-06T06:47:53.021Z,5.73
2022-11-06T06:50:20.919Z,5.66
2022-11-06T06:52:47.676Z,5.65
2022-11-06T06:55:14.209Z,5.67
2022-11-06T06:57:40.683Z,5.67
2022-11-06T07:00:07.338Z,5.63
2022-11-06T07:02:33.746Z,5.70
2022-11-06T07:05:00.561Z,5.62
2022-11-06T07:07:27.382Z,5.66
2022-11-06T07:09:53.706Z,5.67
2022-11-06T07:12:20.780Z,5.70
2022-11-06T07:14:47.499Z,5.67
2022-11-06T07:17:14.193Z,5.70
2022-11-06T07:19:40.544Z,5.72
2022-11-06T07:22:06.873Z,5.79
2022-11-06T07:24:35.968Z,5.83
2022-11-06T07:27:02.282Z,5.85
2022-11-06T07:29:29.557Z,5.89
2022-11-06T07:31:55.866Z,5.92
2022-11-06T07:34:22.197Z,5.89
2022-11-06T07:36:48.551Z,5.87
2022-11-06T07:39:14.905Z,5.95
2022-11-06T07:41:41.316Z,5.93
2022-11-06T07:44:08.017Z,6.00
2022-11-06T07:46:34.389Z,6.11
2022-11-06T07:49:00.723Z,6.24
2022-11-06T07:51:27.037Z,6.33
2022-11-06T07:53:53.405Z,6.44
2022-11-06T07:56:24.427Z,6.52
2022-11-06T07:58:51.857Z,6.54
2022-11-06T08:01:28.022Z,6.65
2022-11-06T08:03:56.900Z,6.74
2022-11-06T08:06:23.262Z,6.90
2022-11-06T08:08:54.841Z,6.89
2022-11-06T08:11:24.193Z,7.00
2022-11-06T08:13:50.522Z,7.08
2022-11-06T08:16:18.271Z,7.06
2022-11-06T08:18:44.742Z,7.16
2022-11-06T08:21:11.068Z,7.12
2022-11-06T08:23:42.919Z,7.28
2022-11-06T08:26:10.829Z,7.13
2022-11-06T08:28:38.835Z,7.29
2022-11-06T08:31:08.326Z,7.19
2022-11-06T08:33:35.350Z,7.33
2022-11-06T08:36:02.675Z,7.40
2022-11-06T08:38:30.453Z,7.38
2022-11-06T08:40:57.251Z,7.48
2022-11-06T08:43:26.392Z,7.50
2022-11-06T08:45:52.710Z,7.52
2022-11-06T08:48:19.359Z,7.61
2022-11-06T08:50:45.701Z,7.63
2022-11-06T08:53:12.802Z,7.70
2022-11-06T08:55:39.675Z,7.71
2022-11-06T08:58:06.105Z,7.71
2022-11-06T09:00:32.434Z,7.66
2022-11-06T09:02:59.760Z,7.68
2022-11-06T09:05:26.255Z,7.75
2022-11-06T09:07:53.238Z,7.92
2022-11-06T09:10:20.755Z,7.87
2022-11-06T09:12:47.116Z,7.98
2022-11-06T09:15:13.808Z,7.97
2022-11-06T09:17:43.940Z,7.96
2022-11-06T09:20:12.010Z,7.93
2022-11-06T09:22:38.333Z,8.12
2022-11-06T09:25:04.918Z,8.16
2022-11-06T09:27:31.420Z,8.16
2022-11-06T09:30:00.068Z,8.17
2022-11-06T09:32:26.388Z,8.20
2022-11-06T09:34:52.763Z,8.28
2022-11-06T09:37:19.210Z,8.43
2022-11-06T09:39:47.841Z,8.50
2022-11-06T09:42:17.131Z,8.44
2022-11-06T09:44:58.915Z,8.60
2022-11-06T09:47:25.796Z,8.51
2022-11-06T09:49:55.528Z,8.63
2022-11-06T09:52:34.016Z,8.61
2022-11-06T09:55:25.203Z,8.75
2022-11-06T09:57:55.831Z,8.61
2022-11-06T10:00:22.253Z,8.71
2022-11-06T10:02:55.861Z,8.60
2022-11-06T10:05:24.132Z,8.78
2022-11-06T10:07:51.439Z,8.63
2022-11-06T10:10:19.023Z,8.74
2022-11-06T10:12:54.449Z,8.87
2022-11-06T10:15:25.197Z,8.84
2022-11-06T10:17:59.797Z,8.82
2022-11-06T10:20:40.106Z,8.92
2022-11-06T10:23:19.448Z,9.10
2022-11-06T10:25:47.884Z,9.18
2022-11-06T10:28:32.839Z,9.12
2022-11-06T10:30:59.134Z,9.15
2022-11-06T10:33:41.596Z,9.36
2022-11-06T10:36:13.667Z,9.33
2022-11-06T10:38:40.820Z,9.45
2022-11-06T10:41:12.572Z,9.32
2022-11-06T10:43:45.790Z,9.63
2022-11-06T10:46:12.077Z,9.73
2022-11-06T10:48:41.555Z,9.88
2022-11-06T10:51:27.670Z,9.74
2022-11-06T10:54:01.329Z,9.33
2022-11-06T10:56:30.741Z,9.54
2022-11-06T10:58:58.137Z,9.49
2022-11-06T11:01:24.763Z,9.72
2022-11-06T11:03:51.607Z,9.86
2022-11-06T11:06:18.393Z,10.06
2022-11-06T11:08:48.152Z,10.07
2022-11-06T11:11:14.451Z,10.17
2022-11-06T11:13:41.214Z,10.26
2022-11-06T11:16:30.909Z,10.31
2022-11-06T11:18:58.482Z,10.50
2022-11-06T11:21:25.551Z,10.66
2022-11-06T11:24:01.675Z,10.83
2022-11-06T11:26:28.815Z,11.16
2022-11-06T11:28:55.763Z,10.81
2022-11-06T11:31:27.683Z,11.12
2022-11-06T11:33:56.032Z,11.05
2022-11-06T11:36:22.398Z,10.98
2022-11-06T11:38:48.737Z,10.81
2022-11-06T11:41:24.401Z,10.64
2022-11-06T11:44:03.471Z,10.83
2022-11-06T11:46:30.774Z,10.59
2022-11-06T11:48:57.818Z,10.95
2022-11-06T11:51:27.204Z,10.55
2022-11-06T11:53:55.445Z,10.72
2022-11-06T11:56:36.431Z,10.79
2022-11-06T11:59:11.867Z,11.02
2022-11-06T12:01:41.223Z,10.86
2022-11-06T12:04:29.077Z,10.29
2022-11-06T12:06:57.870Z,9.69
2022-11-06T12:09:24.897Z,9.86
2022-11-06T12:11:52.177Z,9.94
2022-11-06T12:14:19.490Z,9.87
2022-11-06T12:16:46.267Z,9.98
2022-11-06T12:19:12.609Z,10.00
2022-11-06T12:21:39.322Z,10.41
2022-11-06T12:24:06.993Z,10.91
2022-11-06T12:26:41.762Z,10.97
2022-11-06T12:29:11.625Z,11.22
2022-11-06T12:31:43.499Z,11.06
2022-11-06T12:34:28.690Z,11.07
2022-11-06T12:37:17.401Z,11.12
2022-11-06T12:39:46.370Z,11.17
2022-11-06T12:42:12.751Z,11.02
2022-11-06T12:44:41.537Z,11.05
2022-11-06T12:47:11.989Z,10.83
2022-11-06T12:49:57.209Z,10.67
2022-11-06T12:52:29.335Z,10.54
2022-11-06T12:55:07.557Z,10.56
2022-11-06T12:57:40.369Z,10.37
2022-11-06T13:00:14.276Z,10.15
2022-11-06T13:03:00.099Z,10.00
2022-11-06T13:05:31.399Z,9.91
2022-11-06T13:08:17.025Z,9.86
2022-11-06T13:10:48.689Z,9.81
2022-11-06T13:13:30.446Z,9.80
2022-11-06T13:16:15.479Z,9.79
2022-11-06T13:18:53.760Z,9.92
2022-11-06T13:21:20.085Z,9.98
2022-11-06T13:23:50.484Z,9.99
2022-11-06T13:26:35.610Z,10.12
2022-11-06T13:29:05.857Z,10.05
2022-11-06T13:31:36.838Z,10.18
2022-11-06T13:34:05.193Z,10.15
2022-11-06T13:36:31.911Z,10.18
2022-11-06T13:39:00.904Z,10.13
2022-11-06T13:41:27.836Z,10.15
2022-11-06T13:43:54.255Z,10.10
2022-11-06T13:46:21.874Z,10.11
2022-11-06T13:48:50.751Z,10.19
2022-11-06T13:51:24.434Z,10.16
2022-11-06T13:54:00.229Z,10.12
2022-11-06T13:56:36.058Z,10.10
2022-11-06T13:59:14.850Z,10.05
2022-11-06T14:01:55.052Z,10.03
2022-11-06T14:04:25.727Z,10.06
2022-11-06T14:06:55.812Z,10.13
2022-11-06T14:09:25.747Z,10.14
2022-11-06T14:11:55.530Z,10.16
2022-11-06T14:14:21.821Z,10.16
2022-11-06T14:17:03.614Z,10.12
2022-11-06T14:19:30.452Z,10.15
2022-11-06T14:22:09.002Z,10.15
2022-11-06T14:24:35.953Z,10.13
2022-11-06T14:27:03.189Z,10.08
2022-11-06T14:29:30.255Z,10.06
2022-11-06T14:32:02.965Z,10.10
2022-11-06T14:34:29.986Z,10.22
2022-11-06T14:36:56.314Z,10.20
2022-11-06T14:39:41.450Z,10.20
2022-11-06T14:42:07.761Z,10.24
2022-11-06T14:44:35.321Z,10.29
2022-11-06T14:47:02.857Z,10.27
2022-11-06T14:49:31.015Z,10.30
2022-11-06T14:51:58.181Z,10.25
2022-11-06T14:54:24.791Z,10.22
2022-11-06T14:56:54.341Z,10.19
2022-11-06T14:59:22.129Z,10.18
2022-11-06T15:01:55.319Z,10.19
2022-11-06T15:04:21.751Z,10.16
2022-11-06T15:06:48.318Z,10.10
2022-11-06T15:09:23.922Z,10.02
2022-11-06T15:11:51.227Z,9.98
2022-11-06T15:14:17.517Z,9.94
2022-11-06T15:16:47.280Z,9.87
2022-11-06T15:19:34.027Z,9.81
2022-11-06T15:22:03.084Z,9.76
2022-11-06T15:24:31.336Z,9.72
2022-11-06T15:26:58.299Z,9.65
2022-11-06T15:29:31.646Z,9.63
2022-11-06T15:32:05.206Z,9.66
2022-11-06T15:34:36.319Z,9.61
2022-11-06T15:37:22.915Z,9.58
2022-11-06T15:39:57.545Z,9.52
2022-11-06T15:42:26.067Z,9.50
2022-11-06T15:44:52.458Z,9.44
2022-11-06T15:47:22.726Z,9.46
2022-11-06T15:49:49.270Z,9.38
2022-11-06T15:52:16.967Z,9.33
2022-11-06T15:54:43.939Z,9.38
2022-11-06T15:57:18.045Z,9.36
2022-11-06T15:59:44.516Z,9.35
2022-11-06T16:02:15.319Z,9.37
2022-11-06T16:04:41.809Z,9.27
2022-11-06T16:07:09.207Z,9.28
2022-11-06T16:09:35.551Z,9.24
2022-11-06T16:12:01.877Z,9.22
2022-11-06T16:14:28.206Z,9.17
2022-11-06T16:16:55.333Z,9.07
2022-11-06T16:19:23.565Z,9.05
2022-11-06T16:22:09.202Z,9.12
2022-11-06T16:24:43.784Z,9.14
2022-11-06T16:27:10.145Z,9.13
2022-11-06T16:29:36.570Z,9.21
2022-11-06T16:32:06.838Z,9.12
2022-11-06T16:34:33.134Z,9.02
2022-11-06T16:37:02.546Z,9.02
2022-11-06T16:39:49.638Z,8.98
2022-11-06T16:42:22.434Z,9.06
2022-11-06T16:44:49.307Z,9.08
2022-11-06T16:47:16.731Z,9.05
2022-11-06T16:49:53.138Z,9.11
2022-11-06T16:52:33.459Z,9.11
2022-11-06T16:55:01.229Z,9.16
2022-11-06T16:57:37.188Z,9.21
2022-11-06T17:00:06.757Z,9.22
2022-11-06T17:02:34.134Z,9.21
2022-11-06T17:05:13.762Z,9.23
2022-11-06T17:07:41.426Z,9.33
2022-11-06T17:10:26.834Z,9.32
2022-11-06T17:12:53.154Z,9.32
2022-11-06T17:15:19.536Z,9.31
2022-11-06T17:17:45.983Z,9.33
2022-11-06T17:20:13.460Z,9.31
2022-11-06T17:22:39.798Z,9.29
2022-11-06T17:25:06.446Z,9.30
2022-11-06T17:27:32.774Z,9.32
2022-11-06T17:29:59.111Z,9.38
2022-11-06T17:32:25.472Z,9.36
2022-11-06T17:34:51.802Z,9.32
2022-11-06T17:37:21.894Z,9.35
2022-11-06T17:39:48.552Z,9.20
2022-11-06T17:42:14.884Z,9.09
2022-11-06T17:44:41.218Z,9.06
2022-11-06T17:47:07.538Z,9.03
2022-11-06T17:49:33.913Z,8.95
2022-11-06T17:52:00.689Z,8.87
2022-11-06T17:54:28.152Z,8.89
2022-11-06T17:56:54.982Z,8.90
2022-11-06T17:59:21.594Z,8.90
2022-11-06T18:01:50.342Z,8.79
2022-11-06T18:04:17.260Z,8.79
2022-11-06T18:06:44.405Z,8.80
2022-11-06T18:09:10.735Z,8.74
2022-11-06T18:11:37.078Z,8.80
2022-11-06T18:14:03.405Z,8.71
2022-11-06T18:16:30.449Z,8.65
2022-11-06T18:18:57.059Z,8.67
2022-11-06T18:21:23.594Z,8.64
2022-11-06T18:23:50.045Z,8.63
2022-11-06T18:26:16.581Z,8.60
2022-11-06T18:28:42.931Z,8.57
2022-11-06T18:31:09.312Z,8.52
2022-11-06T18:33:35.621Z,8.57
2022-11-06T18:36:05.970Z,8.60
2022-11-06T18:38:32.382Z,8.60
2022-11-06T18:40:58.707Z,8.57
2022-11-06T18:43:25.092Z,8.56
2022-11-06T18:45:51.447Z,8.46
2022-11-06T18:48:21.337Z,8.35
2022-11-06T18:50:48.316Z,8.30
2022-11-06T18:53:15.254Z,8.27
2022-11-06T18:55:45.497Z,8.18
2022-11-06T18:58:12.376Z,8.12
2022-11-06T19:00:38.873Z,8.02
2022-11-06T19:03:05.939Z,7.96
2022-11-06T19:05:34.189Z,7.92
2022-11-06T19:08:00.938Z,7.80
2022-11-06T19:10:29.384Z,7.75
2022-11-06T19:12:59.165Z,7.59
2022-11-06T19:15:25.996Z,7.57
2022-11-06T19:17:52.685Z,7.57
2022-11-06T19:20:19.731Z,7.51
2022-11-06T19:22:48.509Z,7.47
2022-11-06T19:25:14.845Z,7.41
2022-11-06T19:27:41.411Z,7.42
2022-11-06T19:30:08.181Z,7.40
2022-11-06T19:32:34.492Z,7.40
2022-11-06T19:35:00.841Z,7.31
2022-11-06T19:37:27.321Z,7.33
2022-11-06T19:39:53.649Z,7.35
2022-11-06T19:42:19.963Z,7.28
2022-11-06T19:44:46.359Z,7.33
2022-11-06T19:47:12.729Z,7.34
2022-11-06T19:49:39.050Z,7.26
2022-11-06T19:52:42.292Z,7.26
2022-11-06T19:54:51.853Z,7.37
2022-11-06T19:57:38.013Z,7.32
2022-11-06T20:00:10.151Z,7.39
2022-11-06T20:02:37.608Z,7.36
2022-11-06T20:05:04.336Z,7.36
2022-11-06T20:07:30.883Z,7.38
2022-11-06T20:10:02.103Z,7.32
2022-11-06T20:12:28.817Z,7.38
2022-11-06T20:14:55.272Z,7.40
2022-11-06T20:17:21.609Z,7.44
2022-11-06T20:19:48.002Z,7.41
2022-11-06T20:22:14.355Z,7.46
2022-11-06T20:24:41.464Z,7.44
2022-11-06T20:27:11.383Z,7.53
2022-11-06T20:29:38.066Z,7.47
2022-11-06T20:32:04.545Z,7.51
2022-11-06T20:34:30.898Z,7.53
2022-11-06T20:36:57.225Z,7.54
2022-11-06T20:39:23.582Z,7.51
2022-11-06T20:41:50.851Z,7.52
2022-11-06T20:44:17.201Z,7.55
2022-11-06T20:46:46.316Z,7.55
2022-11-06T20:49:14.107Z,7.54
2022-11-06T20:52:11.548Z,7.51
2022-11-06T20:54:26.846Z,7.51
2022-11-06T20:56:53.278Z,7.51
2022-11-06T20:59:19.615Z,7.56
2022-11-06T21:01:46.144Z,7.54
2022-11-06T21:04:12.628Z,7.57
2022-11-06T21:06:39.255Z,7.57
2022-11-06T21:09:06.104Z,7.54
2022-11-06T21:11:32.422Z,7.58
2022-11-06T21:13:58.750Z,7.60
2022-11-06T21:16:25.900Z,7.56
2022-11-06T21:18:52.365Z,7.57
2022-11-06T21:21:21.015Z,7.61
2022-11-06T21:23:47.893Z,7.62
2022-11-06T21:26:21.664Z,7.59
2022-11-06T21:28:48.006Z,7.53
2022-11-06T21:31:18.259Z,7.58
2022-11-06T21:33:45.729Z,7.57
2022-11-06T21:36:13.479Z,7.55
2022-11-06T21:38:39.876Z,7.54
2022-11-06T21:41:13.303Z,7.55
2022-11-06T21:43:39.673Z,7.56
2022-11-06T21:46:06.759Z,7.56
2022-11-06T21:48:45.802Z,7.60
2022-11-06T21:51:13.920Z,7.70
2022-11-06T21:53:59.077Z,7.71
2022-11-06T21:56:26.305Z,7.68
2022-11-06T21:58:53.222Z,7.73
2022-11-06T22:01:19.629Z,7.70
2022-11-06T22:03:46.011Z,7.68
2022-11-06T22:06:16.243Z,7.68
2022-11-06T22:08:43.221Z,7.75
2022-11-06T22:11:15.733Z,7.68
2022-11-06T22:13:42.156Z,7.69
2022-11-06T22:16:08.681Z,7.69
2022-11-06T22:18:35.223Z,7.75
2022-11-06T22:21:05.287Z,7.75
2022-11-06T22:23:31.643Z,7.73
2022-11-06T22:25:57.968Z,7.78
2022-11-06T22:28:24.326Z,7.83
2022-11-06T22:30:50.903Z,7.77
2022-11-06T22:33:18.526Z,7.80
2022-11-06T22:35:44.855Z,7.84
2022-11-06T22:38:11.862Z,7.82
2022-11-06T22:40:38.191Z,7.82
2022-11-06T22:43:04.560Z,7.90
2022-11-06T22:45:31.262Z,7.89
2022-11-06T22:47:57.640Z,7.87
2022-11-06T22:50:23.959Z,7.91
2022-11-06T22:52:51.470Z,7.87
2022-11-06T22:55:17.808Z,7.87
2022-11-06T22:57:44.151Z,7.91
2022-11-06T23:00:10.771Z,7.91
2022-11-06T23:02:37.410Z,7.99
2022-11-06T23:05:03.783Z,8.00
2022-11-06T23:07:30.111Z,8.06
2022-11-06T23:09:56.449Z,8.09
2022-11-06T23:12:22.810Z,8.19
2022-11-06T23:14:49.147Z,8.16
2022-11-06T23:17:15.466Z,8.15
2022-11-06T23:19:41.870Z,8.24
2022-11-06T23:22:26.861Z,8.28
2022-11-06T23:24:53.425Z,8.24
2022-11-06T23:27:20.623Z,8.29
2022-11-06T23:29:46.965Z,8.32
2022-11-06T23:32:13.320Z,8.41
2022-11-06T23:34:39.652Z,8.40
2022-11-06T23:37:06.016Z,8.43
2022-11-06T23:39:32.341Z,8.52
2022-11-06T23:41:58.665Z,8.45
2022-11-06T23:44:43.814Z,8.53
2022-11-06T23:47:10.221Z,8.67
2022-11-06T23:49:36.544Z,8.70
2022-11-06T23:52:03.051Z,8.75
2022-11-06T23:54:29.399Z,8.74
2022-11-06T23:56:55.718Z,8.80
2022-11-06T23:59:22.138Z,8.80
